sensor_id;sensor_type;location;lat;lon;timestamp;P1;durP1;ratioP1;P2;durP2;ratioP2
19623;SDS011;9959;49.798;9.928;2023-08-24T00:00:21;9.52;;;6.50;;
19623;SDS011;9959;49.798;9.928;2023-08-24T00:02:48;11.75;;;7.15;;
19623;SDS011;9959;49.798;9.928;2023-08-24T00:05:15;11.82;;;7.07;;
19623;SDS011;9959;49.798;9.928;2023-08-24T00:07:42;12.85;;;7.50;;
19623;SDS011;9959;49.798;9.928;2023-08-24T00:10:09;13.48;;;6.68;;
19623;SDS011;9959;49.798;9.928;2023-08-24T00:12:36;11.40;;;7.20;;
19623;SDS011;9959;49.798;9.928;2023-08-24T00:15:03;10.65;;;7.15;;
19623;SDS011;9959;49.798;9.928;2023-08-24T00:17:30;13.50;;;7.10;;
19623;SDS011;9959;49.798;9.928;2023-08-24T00:19:57;9.18;;;6.57;;
19623;SDS011;9959;49.798;9.928;2023-08-24T00:22:24;15.85;;;6.93;;
19623;SDS011;9959;49.798;9.928;2023-08-24T00:24:51;12.40;;;6.93;;
19623;SDS011;9959;49.798;9.928;2023-08-24T00:27:18;11.23;;;7.68;;
19623;SDS011;9959;49.798;9.928;2023-08-24T00:29:45;18.75;;;7.82;;
19623;SDS011;9959;49.798;9.928;2023-08-24T00:32:12;9.50;;;7.40;;
19623;SDS011;9959;49.798;9.928;2023-08-24T00:34:38;16.00;;;7.40;;
19623;SDS011;9959;49.798;9.928;2023-08-24T00:37:05;14.15;;;7.80;;
19623;SDS011;9959;49.798;9.928;2023-08-24T00:39:32;12.07;;;7.60;;
19623;SDS011;9959;49.798;9.928;2023-08-24T00:41:59;11.00;;;7.05;;
19623;SDS011;9959;49.798;9.928;2023-08-24T00:44:26;9.60;;;7.55;;
19623;SDS011;9959;49.798;9.928;2023-08-24T00:46:53;11.88;;;7.75;;
19623;SDS011;9959;49.798;9.928;2023-08-24T00:49:21;12.30;;;7.68;;
19623;SDS011;9959;49.798;9.928;2023-08-24T00:51:48;7.75;;;6.60;;
19623;SDS011;9959;49.798;9.928;2023-08-24T00:54:15;10.93;;;7.43;;
19623;SDS011;9959;49.798;9.928;2023-08-24T00:56:43;8.63;;;7.60;;
19623;SDS011;9959;49.798;9.928;2023-08-24T00:59:10;10.85;;;7.97;;
19623;SDS011;9959;49.798;9.928;2023-08-24T01:01:39;9.90;;;7.53;;
19623;SDS011;9959;49.798;9.928;2023-08-24T01:04:10;10.77;;;7.40;;
19623;SDS011;9959;49.798;9.928;2023-08-24T01:06:38;14.25;;;7.72;;
19623;SDS011;9959;49.798;9.928;2023-08-24T01:09:05;10.65;;;7.63;;
19623;SDS011;9959;49.798;9.928;2023-08-24T01:17:22;8.57;;;7.25;;
19623;SDS011;9959;49.798;9.928;2023-08-24T01:19:51;12.48;;;7.85;;
19623;SDS011;9959;49.798;9.928;2023-08-24T01:22:20;10.93;;;8.00;;
19623;SDS011;9959;49.798;9.928;2023-08-24T01:25:06;12.95;;;8.82;;
19623;SDS011;9959;49.798;9.928;2023-08-24T01:27:38;12.38;;;7.80;;
19623;SDS011;9959;49.798;9.928;2023-08-24T01:30:07;9.18;;;7.65;;
19623;SDS011;9959;49.798;9.928;2023-08-24T01:32:34;13.25;;;8.23;;
19623;SDS011;9959;49.798;9.928;2023-08-24T01:35:04;10.55;;;7.53;;
19623;SDS011;9959;49.798;9.928;2023-08-24T01:37:32;11.00;;;8.13;;
19623;SDS011;9959;49.798;9.928;2023-08-24T01:42:55;10.43;;;7.68;;
19623;SDS011;9959;49.798;9.928;2023-08-24T01:45:27;13.73;;;8.93;;
19623;SDS011;9959;49.798;9.928;2023-08-24T01:47:56;10.15;;;7.90;;
19623;SDS011;9959;49.798;9.928;2023-08-24T01:50:25;16.25;;;8.27;;
19623;SDS011;9959;49.798;9.928;2023-08-24T01:52:52;10.02;;;8.20;;
19623;SDS011;9959;49.798;9.928;2023-08-24T01:55:19;10.57;;;8.00;;
19623;SDS011;9959;49.798;9.928;2023-08-24T01:57:48;13.38;;;8.32;;
19623;SDS011;9959;49.798;9.928;2023-08-24T02:00:15;10.65;;;7.82;;
19623;SDS011;9959;49.798;9.928;2023-08-24T02:02:43;16.58;;;8.18;;
19623;SDS011;9959;49.798;9.928;2023-08-24T02:05:11;11.07;;;7.28;;
19623;SDS011;9959;49.798;9.928;2023-08-24T02:07:38;10.90;;;7.57;;
19623;SDS011;9959;49.798;9.928;2023-08-24T02:10:06;8.90;;;7.65;;
19623;SDS011;9959;49.798;9.928;2023-08-24T02:12:33;13.73;;;7.75;;
19623;SDS011;9959;49.798;9.928;2023-08-24T02:15:00;12.32;;;7.88;;
19623;SDS011;9959;49.798;9.928;2023-08-24T02:17:27;8.07;;;7.25;;
19623;SDS011;9959;49.798;9.928;2023-08-24T02:19:55;9.43;;;7.80;;
19623;SDS011;9959;49.798;9.928;2023-08-24T02:22:21;8.63;;;7.78;;
19623;SDS011;9959;49.798;9.928;2023-08-24T02:24:48;10.45;;;8.32;;
19623;SDS011;9959;49.798;9.928;2023-08-24T02:27:15;9.43;;;8.43;;
19623;SDS011;9959;49.798;9.928;2023-08-24T02:29:42;11.65;;;7.93;;
19623;SDS011;9959;49.798;9.928;2023-08-24T02:32:09;12.90;;;7.60;;
19623;SDS011;9959;49.798;9.928;2023-08-24T02:34:36;13.68;;;7.97;;
19623;SDS011;9959;49.798;9.928;2023-08-24T02:37:02;13.32;;;8.30;;
19623;SDS011;9959;49.798;9.928;2023-08-24T02:39:29;10.93;;;7.75;;
19623;SDS011;9959;49.798;9.928;2023-08-24T02:41:56;12.45;;;7.20;;
19623;SDS011;9959;49.798;9.928;2023-08-24T02:44:23;10.73;;;8.68;;
19623;SDS011;9959;49.798;9.928;2023-08-24T02:46:50;10.57;;;8.32;;
19623;SDS011;9959;49.798;9.928;2023-08-24T02:49:17;10.23;;;8.43;;
19623;SDS011;9959;49.798;9.928;2023-08-24T02:51:44;11.73;;;8.52;;
19623;SDS011;9959;49.798;9.928;2023-08-24T02:54:11;10.60;;;8.27;;
19623;SDS011;9959;49.798;9.928;2023-08-24T02:56:38;14.75;;;7.85;;
19623;SDS011;9959;49.798;9.928;2023-08-24T02:59:05;12.35;;;8.45;;
19623;SDS011;9959;49.798;9.928;2023-08-24T03:01:32;13.73;;;8.55;;
19623;SDS011;9959;49.798;9.928;2023-08-24T03:03:59;10.30;;;8.32;;
19623;SDS011;9959;49.798;9.928;2023-08-24T03:06:26;10.68;;;8.65;;
19623;SDS011;9959;49.798;9.928;2023-08-24T03:08:53;13.38;;;8.55;;
19623;SDS011;9959;49.798;9.928;2023-08-24T03:11:20;17.10;;;9.52;;
19623;SDS011;9959;49.798;9.928;2023-08-24T03:13:46;12.18;;;8.80;;
19623;SDS011;9959;49.798;9.928;2023-08-24T03:16:13;10.98;;;8.80;;
19623;SDS011;9959;49.798;9.928;2023-08-24T03:18:40;16.20;;;9.10;;
19623;SDS011;9959;49.798;9.928;2023-08-24T03:21:07;13.48;;;9.48;;
19623;SDS011;9959;49.798;9.928;2023-08-24T03:23:34;13.07;;;9.23;;
19623;SDS011;9959;49.798;9.928;2023-08-24T03:26:01;13.60;;;9.93;;
19623;SDS011;9959;49.798;9.928;2023-08-24T03:28:28;18.77;;;10.40;;
19623;SDS011;9959;49.798;9.928;2023-08-24T03:30:55;12.52;;;9.23;;
19623;SDS011;9959;49.798;9.928;2023-08-24T03:33:22;12.20;;;9.75;;
19623;SDS011;9959;49.798;9.928;2023-08-24T03:35:49;10.68;;;9.10;;
19623;SDS011;9959;49.798;9.928;2023-08-24T03:38:16;14.43;;;10.20;;
19623;SDS011;9959;49.798;9.928;2023-08-24T03:40:43;13.30;;;9.68;;
19623;SDS011;9959;49.798;9.928;2023-08-24T03:43:10;15.05;;;10.15;;
19623;SDS011;9959;49.798;9.928;2023-08-24T03:45:37;13.10;;;10.00;;
19623;SDS011;9959;49.798;9.928;2023-08-24T03:48:04;13.52;;;10.65;;
19623;SDS011;9959;49.798;9.928;2023-08-24T03:50:31;12.48;;;10.93;;
19623;SDS011;9959;49.798;9.928;2023-08-24T03:52:58;17.58;;;10.90;;
19623;SDS011;9959;49.798;9.928;2023-08-24T03:55:25;14.48;;;10.82;;
19623;SDS011;9959;49.798;9.928;2023-08-24T03:57:52;15.25;;;9.98;;
19623;SDS011;9959;49.798;9.928;2023-08-24T04:00:20;12.05;;;10.55;;
19623;SDS011;9959;49.798;9.928;2023-08-24T04:02:47;15.68;;;10.45;;
19623;SDS011;9959;49.798;9.928;2023-08-24T04:05:14;17.10;;;10.20;;
19623;SDS011;9959;49.798;9.928;2023-08-24T04:07:41;16.88;;;10.52;;
19623;SDS011;9959;49.798;9.928;2023-08-24T04:10:09;13.43;;;9.32;;
19623;SDS011;9959;49.798;9.928;2023-08-24T04:12:36;12.43;;;10.25;;
19623;SDS011;9959;49.798;9.928;2023-08-24T04:15:03;11.57;;;9.55;;
19623;SDS011;9959;49.798;9.928;2023-08-24T04:17:31;12.73;;;9.85;;
19623;SDS011;9959;49.798;9.928;2023-08-24T04:19:58;16.02;;;9.82;;
19623;SDS011;9959;49.798;9.928;2023-08-24T04:22:25;12.25;;;9.65;;
19623;SDS011;9959;49.798;9.928;2023-08-24T04:24:52;14.57;;;10.07;;
19623;SDS011;9959;49.798;9.928;2023-08-24T04:27:19;17.58;;;10.00;;
19623;SDS011;9959;49.798;9.928;2023-08-24T04:29:46;17.00;;;9.77;;
19623;SDS011;9959;49.798;9.928;2023-08-24T04:32:12;16.48;;;9.93;;
19623;SDS011;9959;49.798;9.928;2023-08-24T04:34:39;15.07;;;9.40;;
19623;SDS011;9959;49.798;9.928;2023-08-24T04:37:06;15.05;;;10.18;;
19623;SDS011;9959;49.798;9.928;2023-08-24T04:39:33;17.83;;;10.15;;
19623;SDS011;9959;49.798;9.928;2023-08-24T04:42:00;14.77;;;10.63;;
19623;SDS011;9959;49.798;9.928;2023-08-24T04:44:29;13.23;;;9.55;;
19623;SDS011;9959;49.798;9.928;2023-08-24T04:46:56;13.82;;;9.63;;
19623;SDS011;9959;49.798;9.928;2023-08-24T04:49:23;16.92;;;9.60;;
19623;SDS011;9959;49.798;9.928;2023-08-24T04:51:50;14.30;;;8.85;;
19623;SDS011;9959;49.798;9.928;2023-08-24T04:54:17;12.57;;;8.60;;
19623;SDS011;9959;49.798;9.928;2023-08-24T04:56:44;16.05;;;9.02;;
19623;SDS011;9959;49.798;9.928;2023-08-24T04:59:11;14.68;;;8.75;;
19623;SDS011;9959;49.798;9.928;2023-08-24T05:01:38;17.02;;;8.88;;
19623;SDS011;9959;49.798;9.928;2023-08-24T05:04:04;10.20;;;7.47;;
19623;SDS011;9959;49.798;9.928;2023-08-24T05:06:32;10.60;;;8.25;;
19623;SDS011;9959;49.798;9.928;2023-08-24T05:08:59;14.25;;;7.80;;
19623;SDS011;9959;49.798;9.928;2023-08-24T05:11:26;11.43;;;6.50;;
19623;SDS011;9959;49.798;9.928;2023-08-24T05:13:55;14.40;;;6.43;;
19623;SDS011;9959;49.798;9.928;2023-08-24T05:16:23;9.55;;;6.10;;
19623;SDS011;9959;49.798;9.928;2023-08-24T05:18:51;10.90;;;5.78;;
19623;SDS011;9959;49.798;9.928;2023-08-24T05:21:20;11.65;;;6.28;;
19623;SDS011;9959;49.798;9.928;2023-08-24T05:23:48;8.48;;;6.43;;
19623;SDS011;9959;49.798;9.928;2023-08-24T05:26:15;8.93;;;5.72;;
19623;SDS011;9959;49.798;9.928;2023-08-24T05:28:49;7.18;;;5.45;;
19623;SDS011;9959;49.798;9.928;2023-08-24T05:31:16;12.25;;;5.93;;
19623;SDS011;9959;49.798;9.928;2023-08-24T05:33:46;14.18;;;6.57;;
19623;SDS011;9959;49.798;9.928;2023-08-24T05:36:13;14.80;;;6.00;;
19623;SDS011;9959;49.798;9.928;2023-08-24T05:38:40;9.23;;;5.82;;
19623;SDS011;9959;49.798;9.928;2023-08-24T05:41:30;9.15;;;5.78;;
19623;SDS011;9959;49.798;9.928;2023-08-24T05:43:58;8.07;;;5.40;;
19623;SDS011;9959;49.798;9.928;2023-08-24T05:46:25;10.45;;;5.00;;
19623;SDS011;9959;49.798;9.928;2023-08-24T05:48:52;11.75;;;5.53;;
19623;SDS011;9959;49.798;9.928;2023-08-24T05:51:18;13.70;;;5.80;;
19623;SDS011;9959;49.798;9.928;2023-08-24T05:53:45;11.90;;;5.50;;
19623;SDS011;9959;49.798;9.928;2023-08-24T05:56:12;8.30;;;5.15;;
19623;SDS011;9959;49.798;9.928;2023-08-24T05:58:39;12.23;;;4.90;;
19623;SDS011;9959;49.798;9.928;2023-08-24T06:01:06;14.48;;;5.70;;
19623;SDS011;9959;49.798;9.928;2023-08-24T06:03:34;6.85;;;5.10;;
19623;SDS011;9959;49.798;9.928;2023-08-24T06:06:01;9.55;;;4.57;;
19623;SDS011;9959;49.798;9.928;2023-08-24T06:08:30;9.60;;;5.15;;
19623;SDS011;9959;49.798;9.928;2023-08-24T06:10:58;10.23;;;5.03;;
19623;SDS011;9959;49.798;9.928;2023-08-24T06:13:25;7.28;;;4.90;;
19623;SDS011;9959;49.798;9.928;2023-08-24T06:15:52;10.07;;;5.10;;
19623;SDS011;9959;49.798;9.928;2023-08-24T06:18:21;9.15;;;5.53;;
19623;SDS011;9959;49.798;9.928;2023-08-24T06:20:48;7.50;;;4.85;;
19623;SDS011;9959;49.798;9.928;2023-08-24T06:23:18;7.57;;;5.28;;
19623;SDS011;9959;49.798;9.928;2023-08-24T06:25:45;16.85;;;6.53;;
19623;SDS011;9959;49.798;9.928;2023-08-24T06:28:13;13.20;;;6.35;;
19623;SDS011;9959;49.798;9.928;2023-08-24T06:30:41;11.35;;;6.75;;
19623;SDS011;9959;49.798;9.928;2023-08-24T06:33:09;8.15;;;5.60;;
19623;SDS011;9959;49.798;9.928;2023-08-24T06:35:43;12.73;;;6.45;;
19623;SDS011;9959;49.798;9.928;2023-08-24T06:38:09;11.18;;;7.20;;
19623;SDS011;9959;49.798;9.928;2023-08-24T06:40:36;12.13;;;7.10;;
19623;SDS011;9959;49.798;9.928;2023-08-24T06:43:03;9.60;;;6.05;;
19623;SDS011;9959;49.798;9.928;2023-08-24T06:45:31;10.75;;;6.47;;
19623;SDS011;9959;49.798;9.928;2023-08-24T06:47:58;12.65;;;6.60;;
19623;SDS011;9959;49.798;9.928;2023-08-24T06:50:25;10.00;;;5.40;;
19623;SDS011;9959;49.798;9.928;2023-08-24T06:52:52;11.40;;;5.80;;
19623;SDS011;9959;49.798;9.928;2023-08-24T06:55:19;13.18;;;5.88;;
19623;SDS011;9959;49.798;9.928;2023-08-24T06:57:47;7.13;;;5.50;;
19623;SDS011;9959;49.798;9.928;2023-08-24T07:00:15;7.85;;;5.40;;
19623;SDS011;9959;49.798;9.928;2023-08-24T07:02:43;9.38;;;4.95;;
19623;SDS011;9959;49.798;9.928;2023-08-24T07:05:09;6.85;;;5.28;;
19623;SDS011;9959;49.798;9.928;2023-08-24T07:07:38;8.30;;;5.18;;
19623;SDS011;9959;49.798;9.928;2023-08-24T07:10:06;8.80;;;5.07;;
19623;SDS011;9959;49.798;9.928;2023-08-24T07:12:33;19.67;;;6.25;;
19623;SDS011;9959;49.798;9.928;2023-08-24T07:15:00;5.75;;;5.00;;
19623;SDS011;9959;49.798;9.928;2023-08-24T07:17:27;7.70;;;4.88;;
19623;SDS011;9959;49.798;9.928;2023-08-24T07:19:54;7.32;;;5.60;;
19623;SDS011;9959;49.798;9.928;2023-08-24T07:22:21;5.85;;;5.07;;
19623;SDS011;9959;49.798;9.928;2023-08-24T07:24:48;7.28;;;5.30;;
19623;SDS011;9959;49.798;9.928;2023-08-24T07:27:18;8.10;;;4.75;;
19623;SDS011;9959;49.798;9.928;2023-08-24T07:29:46;8.48;;;5.15;;
19623;SDS011;9959;49.798;9.928;2023-08-24T07:32:12;9.90;;;5.18;;
19623;SDS011;9959;49.798;9.928;2023-08-24T07:34:40;7.45;;;5.40;;
19623;SDS011;9959;49.798;9.928;2023-08-24T07:37:07;14.70;;;5.60;;
19623;SDS011;9959;49.798;9.928;2023-08-24T07:39:34;6.78;;;5.10;;
19623;SDS011;9959;49.798;9.928;2023-08-24T07:42:00;5.80;;;4.75;;
19623;SDS011;9959;49.798;9.928;2023-08-24T07:44:27;6.35;;;5.10;;
19623;SDS011;9959;49.798;9.928;2023-08-24T07:46:54;8.48;;;5.22;;
19623;SDS011;9959;49.798;9.928;2023-08-24T07:49:22;6.68;;;4.68;;
19623;SDS011;9959;49.798;9.928;2023-08-24T07:51:48;10.63;;;4.82;;
19623;SDS011;9959;49.798;9.928;2023-08-24T07:54:15;8.05;;;4.90;;
19623;SDS011;9959;49.798;9.928;2023-08-24T07:56:42;13.20;;;6.55;;
19623;SDS011;9959;49.798;9.928;2023-08-24T07:59:09;6.05;;;4.80;;
19623;SDS011;9959;49.798;9.928;2023-08-24T08:01:36;7.70;;;5.38;;
19623;SDS011;9959;49.798;9.928;2023-08-24T08:04:03;7.43;;;4.97;;
19623;SDS011;9959;49.798;9.928;2023-08-24T08:06:30;11.80;;;5.03;;
19623;SDS011;9959;49.798;9.928;2023-08-24T08:08:57;12.85;;;5.05;;
19623;SDS011;9959;49.798;9.928;2023-08-24T08:11:24;9.23;;;5.03;;
19623;SDS011;9959;49.798;9.928;2023-08-24T08:13:51;8.68;;;4.90;;
19623;SDS011;9959;49.798;9.928;2023-08-24T08:16:18;12.52;;;5.30;;
19623;SDS011;9959;49.798;9.928;2023-08-24T08:18:45;11.73;;;5.13;;
19623;SDS011;9959;49.798;9.928;2023-08-24T08:21:15;16.35;;;5.90;;
19623;SDS011;9959;49.798;9.928;2023-08-24T08:23:48;13.43;;;5.70;;
19623;SDS011;9959;49.798;9.928;2023-08-24T08:26:15;10.73;;;5.63;;
19623;SDS011;9959;49.798;9.928;2023-08-24T08:28:43;8.98;;;5.20;;
19623;SDS011;9959;49.798;9.928;2023-08-24T08:31:11;10.77;;;5.20;;
19623;SDS011;9959;49.798;9.928;2023-08-24T08:33:38;11.27;;;5.07;;
19623;SDS011;9959;49.798;9.928;2023-08-24T08:36:05;7.65;;;5.18;;
19623;SDS011;9959;49.798;9.928;2023-08-24T08:38:32;6.90;;;4.97;;
19623;SDS011;9959;49.798;9.928;2023-08-24T08:41:03;12.45;;;4.95;;
19623;SDS011;9959;49.798;9.928;2023-08-24T08:43:31;12.18;;;4.97;;
19623;SDS011;9959;49.798;9.928;2023-08-24T08:45:59;10.38;;;5.10;;
19623;SDS011;9959;49.798;9.928;2023-08-24T08:48:27;9.30;;;5.15;;
19623;SDS011;9959;49.798;9.928;2023-08-24T08:50:55;11.18;;;5.03;;
19623;SDS011;9959;49.798;9.928;2023-08-24T08:53:24;7.28;;;5.10;;
19623;SDS011;9959;49.798;9.928;2023-08-24T08:55:52;15.38;;;5.38;;
19623;SDS011;9959;49.798;9.928;2023-08-24T08:58:20;14.10;;;5.45;;
19623;SDS011;9959;49.798;9.928;2023-08-24T09:00:48;12.73;;;5.47;;
19623;SDS011;9959;49.798;9.928;2023-08-24T09:03:17;5.65;;;4.88;;
19623;SDS011;9959;49.798;9.928;2023-08-24T09:05:45;8.98;;;4.70;;
19623;SDS011;9959;49.798;9.928;2023-08-24T09:08:18;6.60;;;5.53;;
19623;SDS011;9959;49.798;9.928;2023-08-24T09:10:45;8.43;;;4.97;;
19623;SDS011;9959;49.798;9.928;2023-08-24T09:13:12;7.88;;;4.60;;
19623;SDS011;9959;49.798;9.928;2023-08-24T09:15:39;13.75;;;5.20;;
19623;SDS011;9959;49.798;9.928;2023-08-24T09:18:06;12.38;;;4.97;;
19623;SDS011;9959;49.798;9.928;2023-08-24T09:20:35;11.50;;;5.40;;
19623;SDS011;9959;49.798;9.928;2023-08-24T09:23:02;10.90;;;4.55;;
19623;SDS011;9959;49.798;9.928;2023-08-24T09:25:31;13.32;;;5.25;;
19623;SDS011;9959;49.798;9.928;2023-08-24T09:27:59;8.00;;;4.40;;
19623;SDS011;9959;49.798;9.928;2023-08-24T09:30:31;11.00;;;4.93;;
19623;SDS011;9959;49.798;9.928;2023-08-24T09:33:17;14.00;;;4.93;;
19623;SDS011;9959;49.798;9.928;2023-08-24T09:35:45;9.20;;;5.20;;
19623;SDS011;9959;49.798;9.928;2023-08-24T09:38:20;5.55;;;4.57;;
19623;SDS011;9959;49.798;9.928;2023-08-24T09:40:52;10.32;;;4.28;;
19623;SDS011;9959;49.798;9.928;2023-08-24T09:43:21;7.75;;;4.55;;
19623;SDS011;9959;49.798;9.928;2023-08-24T09:45:50;8.52;;;4.40;;
19623;SDS011;9959;49.798;9.928;2023-08-24T09:48:22;9.73;;;4.30;;
19623;SDS011;9959;49.798;9.928;2023-08-24T09:50:54;9.73;;;4.63;;
19623;SDS011;9959;49.798;9.928;2023-08-24T09:53:24;14.88;;;4.93;;
19623;SDS011;9959;49.798;9.928;2023-08-24T09:56:01;7.80;;;4.38;;
19623;SDS011;9959;49.798;9.928;2023-08-24T09:58:30;8.80;;;4.32;;
19623;SDS011;9959;49.798;9.928;2023-08-24T10:01:00;8.65;;;3.70;;
19623;SDS011;9959;49.798;9.928;2023-08-24T10:03:30;6.03;;;3.70;;
19623;SDS011;9959;49.798;9.928;2023-08-24T10:06:00;7.50;;;3.92;;
19623;SDS011;9959;49.798;9.928;2023-08-24T10:08:38;5.43;;;3.97;;
19623;SDS011;9959;49.798;9.928;2023-08-24T10:11:10;8.18;;;3.85;;
19623;SDS011;9959;49.798;9.928;2023-08-24T10:17:11;11.65;;;4.30;;
19623;SDS011;9959;49.798;9.928;2023-08-24T10:19:44;10.80;;;4.07;;
19623;SDS011;9959;49.798;9.928;2023-08-24T10:22:14;5.30;;;3.60;;
19623;SDS011;9959;49.798;9.928;2023-08-24T10:24:45;8.15;;;3.85;;
19623;SDS011;9959;49.798;9.928;2023-08-24T10:27:14;4.38;;;3.60;;
19623;SDS011;9959;49.798;9.928;2023-08-24T10:29:45;4.47;;;3.40;;
19623;SDS011;9959;49.798;9.928;2023-08-24T10:32:12;6.93;;;3.70;;
19623;SDS011;9959;49.798;9.928;2023-08-24T10:34:41;9.23;;;3.67;;
19623;SDS011;9959;49.798;9.928;2023-08-24T10:37:09;9.63;;;3.78;;
19623;SDS011;9959;49.798;9.928;2023-08-24T10:39:45;6.97;;;3.83;;
19623;SDS011;9959;49.798;9.928;2023-08-24T10:42:14;8.70;;;3.58;;
19623;SDS011;9959;49.798;9.928;2023-08-24T10:44:45;13.88;;;4.65;;
19623;SDS011;9959;49.798;9.928;2023-08-24T10:47:20;8.13;;;4.20;;
19623;SDS011;9959;49.798;9.928;2023-08-24T10:49:57;8.88;;;4.32;;
19623;SDS011;9959;49.798;9.928;2023-08-24T10:52:31;15.13;;;4.38;;
19623;SDS011;9959;49.798;9.928;2023-08-24T10:55:04;4.88;;;3.65;;
19623;SDS011;9959;49.798;9.928;2023-08-24T10:57:55;9.15;;;3.38;;
19623;SDS011;9959;49.798;9.928;2023-08-24T11:00:31;7.18;;;3.17;;
19623;SDS011;9959;49.798;9.928;2023-08-24T11:02:59;10.52;;;3.30;;
19623;SDS011;9959;49.798;9.928;2023-08-24T11:05:28;6.15;;;3.30;;
19623;SDS011;9959;49.798;9.928;2023-08-24T11:07:58;14.38;;;3.40;;
19623;SDS011;9959;49.798;9.928;2023-08-24T11:13:13;7.22;;;3.53;;
19623;SDS011;9959;49.798;9.928;2023-08-24T11:15:47;6.82;;;3.47;;
19623;SDS011;9959;49.798;9.928;2023-08-24T11:18:26;8.38;;;3.58;;
19623;SDS011;9959;49.798;9.928;2023-08-24T11:20:56;11.65;;;4.00;;
19623;SDS011;9959;49.798;9.928;2023-08-24T11:23:26;8.00;;;3.85;;
19623;SDS011;9959;49.798;9.928;2023-08-24T11:25:54;7.75;;;3.53;;
19623;SDS011;9959;49.798;9.928;2023-08-24T11:28:26;9.00;;;3.75;;
19623;SDS011;9959;49.798;9.928;2023-08-24T11:30:55;7.22;;;4.03;;
19623;SDS011;9959;49.798;9.928;2023-08-24T11:33:27;9.98;;;4.15;;
19623;SDS011;9959;49.798;9.928;2023-08-24T11:35:56;6.72;;;3.55;;
19623;SDS011;9959;49.798;9.928;2023-08-24T11:38:24;5.57;;;3.70;;
19623;SDS011;9959;49.798;9.928;2023-08-24T11:40:51;5.20;;;3.92;;
19623;SDS011;9959;49.798;9.928;2023-08-24T11:43:25;7.78;;;4.07;;
19623;SDS011;9959;49.798;9.928;2023-08-24T11:45:55;13.02;;;4.50;;
19623;SDS011;9959;49.798;9.928;2023-08-24T11:48:25;5.95;;;4.57;;
19623;SDS011;9959;49.798;9.928;2023-08-24T11:50:59;9.75;;;3.97;;
19623;SDS011;9959;49.798;9.928;2023-08-24T11:53:26;12.15;;;4.75;;
19623;SDS011;9959;49.798;9.928;2023-08-24T11:55:54;10.20;;;4.07;;
19623;SDS011;9959;49.798;9.928;2023-08-24T11:58:31;9.45;;;4.63;;
19623;SDS011;9959;49.798;9.928;2023-08-24T12:00:59;5.25;;;3.90;;
19623;SDS011;9959;49.798;9.928;2023-08-24T12:03:27;13.27;;;4.30;;
19623;SDS011;9959;49.798;9.928;2023-08-24T12:06:06;4.75;;;3.97;;
19623;SDS011;9959;49.798;9.928;2023-08-24T12:08:39;9.38;;;4.13;;
19623;SDS011;9959;49.798;9.928;2023-08-24T12:11:15;8.57;;;4.00;;
19623;SDS011;9959;49.798;9.928;2023-08-24T12:13:48;4.80;;;3.22;;
19623;SDS011;9959;49.798;9.928;2023-08-24T12:16:17;7.65;;;3.72;;
19623;SDS011;9959;49.798;9.928;2023-08-24T12:18:55;3.97;;;3.58;;
19623;SDS011;9959;49.798;9.928;2023-08-24T12:21:23;5.97;;;3.30;;
19623;SDS011;9959;49.798;9.928;2023-08-24T12:24:03;4.05;;;3.65;;
19623;SDS011;9959;49.798;9.928;2023-08-24T12:26:35;4.50;;;3.90;;
19623;SDS011;9959;49.798;9.928;2023-08-24T12:29:04;4.68;;;3.63;;
19623;SDS011;9959;49.798;9.928;2023-08-24T12:31:32;11.82;;;3.90;;
19623;SDS011;9959;49.798;9.928;2023-08-24T12:34:01;6.97;;;3.40;;
19623;SDS011;9959;49.798;9.928;2023-08-24T12:36:33;8.93;;;4.20;;
19623;SDS011;9959;49.798;9.928;2023-08-24T12:39:03;8.50;;;4.20;;
19623;SDS011;9959;49.798;9.928;2023-08-24T12:41:31;6.07;;;4.35;;
19623;SDS011;9959;49.798;9.928;2023-08-24T12:43:58;10.18;;;3.92;;
19623;SDS011;9959;49.798;9.928;2023-08-24T12:46:26;10.85;;;3.95;;
19623;SDS011;9959;49.798;9.928;2023-08-24T12:48:54;7.50;;;3.88;;
19623;SDS011;9959;49.798;9.928;2023-08-24T12:51:22;5.00;;;4.32;;
19623;SDS011;9959;49.798;9.928;2023-08-24T12:53:51;4.57;;;4.05;;
19623;SDS011;9959;49.798;9.928;2023-08-24T12:56:18;7.93;;;3.95;;
19623;SDS011;9959;49.798;9.928;2023-08-24T12:58:45;7.43;;;4.00;;
19623;SDS011;9959;49.798;9.928;2023-08-24T13:01:11;7.20;;;4.07;;
19623;SDS011;9959;49.798;9.928;2023-08-24T13:03:39;11.48;;;4.10;;
19623;SDS011;9959;49.798;9.928;2023-08-24T13:06:08;6.93;;;4.40;;
19623;SDS011;9959;49.798;9.928;2023-08-24T13:08:50;6.43;;;4.10;;
19623;SDS011;9959;49.798;9.928;2023-08-24T13:11:19;8.00;;;4.55;;
19623;SDS011;9959;49.798;9.928;2023-08-24T13:13:46;5.90;;;4.78;;
19623;SDS011;9959;49.798;9.928;2023-08-24T13:16:13;9.35;;;4.57;;
19623;SDS011;9959;49.798;9.928;2023-08-24T13:18:42;7.40;;;4.53;;
19623;SDS011;9959;49.798;9.928;2023-08-24T13:21:09;8.18;;;4.30;;
19623;SDS011;9959;49.798;9.928;2023-08-24T13:23:35;7.68;;;4.15;;
19623;SDS011;9959;49.798;9.928;2023-08-24T13:26:02;10.00;;;4.22;;
19623;SDS011;9959;49.798;9.928;2023-08-24T13:28:29;4.57;;;4.05;;
19623;SDS011;9959;49.798;9.928;2023-08-24T13:30:56;7.25;;;4.15;;
19623;SDS011;9959;49.798;9.928;2023-08-24T13:33:23;15.00;;;4.43;;
19623;SDS011;9959;49.798;9.928;2023-08-24T13:35:51;9.05;;;3.78;;
19623;SDS011;9959;49.798;9.928;2023-08-24T13:38:18;6.22;;;3.75;;
19623;SDS011;9959;49.798;9.928;2023-08-24T13:40:45;5.05;;;4.28;;
19623;SDS011;9959;49.798;9.928;2023-08-24T13:43:15;7.93;;;4.03;;
19623;SDS011;9959;49.798;9.928;2023-08-24T13:45:43;9.13;;;4.00;;
19623;SDS011;9959;49.798;9.928;2023-08-24T13:48:10;8.63;;;3.97;;
19623;SDS011;9959;49.798;9.928;2023-08-24T13:50:37;6.38;;;3.92;;
19623;SDS011;9959;49.798;9.928;2023-08-24T13:53:04;6.50;;;4.10;;
19623;SDS011;9959;49.798;9.928;2023-08-24T13:55:32;7.78;;;3.92;;
19623;SDS011;9959;49.798;9.928;2023-08-24T13:57:59;6.25;;;4.07;;
19623;SDS011;9959;49.798;9.928;2023-08-24T14:00:26;6.65;;;4.20;;
19623;SDS011;9959;49.798;9.928;2023-08-24T14:02:53;9.82;;;4.50;;
19623;SDS011;9959;49.798;9.928;2023-08-24T14:05:20;8.70;;;4.07;;
19623;SDS011;9959;49.798;9.928;2023-08-24T14:07:47;8.73;;;4.40;;
19623;SDS011;9959;49.798;9.928;2023-08-24T14:10:14;5.05;;;4.55;;
19623;SDS011;9959;49.798;9.928;2023-08-24T14:12:42;8.75;;;4.60;;
19623;SDS011;9959;49.798;9.928;2023-08-24T14:15:09;7.03;;;3.92;;
19623;SDS011;9959;49.798;9.928;2023-08-24T14:17:37;11.75;;;4.20;;
19623;SDS011;9959;49.798;9.928;2023-08-24T14:20:05;5.60;;;3.90;;
19623;SDS011;9959;49.798;9.928;2023-08-24T14:22:32;6.15;;;4.30;;
19623;SDS011;9959;49.798;9.928;2023-08-24T14:24:59;5.80;;;4.25;;
19623;SDS011;9959;49.798;9.928;2023-08-24T14:27:26;8.80;;;4.38;;
19623;SDS011;9959;49.798;9.928;2023-08-24T14:29:53;8.57;;;4.13;;
19623;SDS011;9959;49.798;9.928;2023-08-24T14:32:20;8.27;;;4.50;;
19623;SDS011;9959;49.798;9.928;2023-08-24T14:34:49;11.98;;;4.32;;
19623;SDS011;9959;49.798;9.928;2023-08-24T14:37:16;10.20;;;4.70;;
19623;SDS011;9959;49.798;9.928;2023-08-24T14:39:43;9.05;;;4.70;;
19623;SDS011;9959;49.798;9.928;2023-08-24T14:42:10;7.80;;;4.45;;
19623;SDS011;9959;49.798;9.928;2023-08-24T14:44:37;8.35;;;4.43;;
19623;SDS011;9959;49.798;9.928;2023-08-24T14:47:03;8.68;;;4.40;;
19623;SDS011;9959;49.798;9.928;2023-08-24T14:49:30;9.80;;;4.70;;
19623;SDS011;9959;49.798;9.928;2023-08-24T14:51:57;5.72;;;4.25;;
19623;SDS011;9959;49.798;9.928;2023-08-24T14:54:24;9.93;;;4.30;;
19623;SDS011;9959;49.798;9.928;2023-08-24T14:56:51;5.82;;;4.57;;
19623;SDS011;9959;49.798;9.928;2023-08-24T14:59:18;12.35;;;4.53;;
19623;SDS011;9959;49.798;9.928;2023-08-24T15:01:45;6.57;;;4.43;;
19623;SDS011;9959;49.798;9.928;2023-08-24T15:04:12;6.68;;;4.15;;
19623;SDS011;9959;49.798;9.928;2023-08-24T15:06:39;9.90;;;4.45;;
19623;SDS011;9959;49.798;9.928;2023-08-24T15:09:06;7.00;;;4.55;;
19623;SDS011;9959;49.798;9.928;2023-08-24T15:11:33;6.78;;;4.28;;
19623;SDS011;9959;49.798;9.928;2023-08-24T15:13:59;7.07;;;4.50;;